sensor_id;sensor_type;location;lat;lon;timestamp;pressure;altitude;pressure_sealevel;temperature;humidity
7376;BME280;3728;42.266;24.944;2023-03-01T00:01:42;100354.88;;;8.11;100.00
7376;BME280;3728;42.266;24.944;2023-03-01T00:04:10;100354.84;;;8.36;100.00
7376;BME280;3728;42.266;24.944;2023-03-01T00:06:37;100348.38;;;8.29;100.00
7376;BME280;3728;42.266;24.944;2023-03-01T00:09:05;100350.16;;;8.23;100.00
7376;BME280;3728;42.266;24.944;2023-03-01T00:11:33;100360.84;;;8.32;100.00
7376;BME280;3728;42.266;24.944;2023-03-01T00:14:02;100362.69;;;8.36;100.00
7376;BME280;3728;42.266;24.944;2023-03-01T00:16:37;100350.69;;;8.30;100.00
7376;BME280;3728;42.266;24.944;2023-03-01T00:19:07;100362.69;;;8.36;100.00
7376;BME280;3728;42.266;24.944;2023-03-01T00:21:40;100377.81;;;8.54;100.00
7376;BME280;3728;42.266;24.944;2023-03-01T00:24:08;100375.97;;;8.55;100.00
7376;BME280;3728;42.266;24.944;2023-03-01T00:26:37;100374.97;;;8.36;100.00
7376;BME280;3728;42.266;24.944;2023-03-01T00:29:05;100371.81;;;8.44;100.00
7376;BME280;3728;42.266;24.944;2023-03-01T00:31:36;100373.38;;;8.45;100.00
7376;BME280;3728;42.266;24.944;2023-03-01T00:34:04;100368.66;;;8.52;100.00
7376;BME280;3728;42.266;24.944;2023-03-01T00:36:35;100370.78;;;8.40;100.00
7376;BME280;3728;42.266;24.944;2023-03-01T00:39:09;100372.88;;;9.12;100.00
7376;BME280;3728;42.266;24.944;2023-03-01T00:41:41;100371.44;;;9.39;100.00
7376;BME280;3728;42.266;24.944;2023-03-01T00:44:08;100372.78;;;9.32;100.00
7376;BME280;3728;42.266;24.944;2023-03-01T00:46:36;100382.00;;;9.19;100.00
7376;BME280;3728;42.266;24.944;2023-03-01T00:49:04;100376.06;;;9.04;100.00
7376;BME280;3728;42.266;24.944;2023-03-01T00:51:33;100379.19;;;9.01;100.00
7376;BME280;3728;42.266;24.944;2023-03-01T00:54:01;100366.72;;;8.92;100.00
7376;BME280;3728;42.266;24.944;2023-03-01T00:56:30;100362.63;;;8.61;100.00
7376;BME280;3728;42.266;24.944;2023-03-01T00:58:59;100352.75;;;8.48;100.00
7376;BME280;3728;42.266;24.944;2023-03-01T01:01:28;100353.16;;;8.85;100.00
7376;BME280;3728;42.266;24.944;2023-03-01T01:04:00;100351.72;;;9.13;100.00
7376;BME280;3728;42.266;24.944;2023-03-01T01:06:32;100341.38;;;8.88;100.00
7376;BME280;3728;42.266;24.944;2023-03-01T01:09:04;100345.53;;;8.99;100.00
7376;BME280;3728;42.266;24.944;2023-03-01T01:11:34;100346.38;;;8.74;100.00
7376;BME280;3728;42.266;24.944;2023-03-01T01:14:03;100333.19;;;9.05;100.00
7376;BME280;3728;42.266;24.944;2023-03-01T01:16:31;100330.47;;;8.76;100.00
7376;BME280;3728;42.266;24.944;2023-03-01T01:19:00;100334.31;;;8.93;100.00
7376;BME280;3728;42.266;24.944;2023-03-01T01:21:28;100325.38;;;8.36;100.00
7376;BME280;3728;42.266;24.944;2023-03-01T01:23:56;100323.31;;;8.12;100.00
7376;BME280;3728;42.266;24.944;2023-03-01T01:26:26;100322.22;;;8.39;100.00
7376;BME280;3728;42.266;24.944;2023-03-01T01:28:56;100330.31;;;8.37;100.00
7376;BME280;3728;42.266;24.944;2023-03-01T01:31:24;100318.84;;;8.23;100.00
7376;BME280;3728;42.266;24.944;2023-03-01T01:33:55;100324.06;;;8.38;100.00
7376;BME280;3728;42.266;24.944;2023-03-01T01:36:23;100328.22;;;8.49;100.00
7376;BME280;3728;42.266;24.944;2023-03-01T01:38:51;100325.09;;;8.37;100.00
7376;BME280;3728;42.266;24.944;2023-03-01T01:41:20;100323.03;;;8.19;100.00
7376;BME280;3728;42.266;24.944;2023-03-01T01:44:10;100316.53;;;8.01;100.00
7376;BME280;3728;42.266;24.944;2023-03-01T01:49:40;100317.59;;;8.05;100.00
7376;BME280;3728;42.266;24.944;2023-03-01T01:52:21;100322.53;;;8.02;100.00
7376;BME280;3728;42.266;24.944;2023-03-01T01:55:21;100324.09;;;7.93;100.00
7376;BME280;3728;42.266;24.944;2023-03-01T01:57:54;100325.94;;;7.92;100.00
7376;BME280;3728;42.266;24.944;2023-03-01T02:00:28;100327.22;;;8.10;100.00
7376;BME280;3728;42.266;24.944;2023-03-01T02:03:02;100332.19;;;8.01;100.00
7376;BME280;3728;42.266;24.944;2023-03-01T02:05:53;100336.56;;;8.51;100.00
7376;BME280;3728;42.266;24.944;2023-03-01T02:08:41;100321.16;;;8.50;100.00
7376;BME280;3728;42.266;24.944;2023-03-01T02:11:10;100329.75;;;8.50;100.00
7376;BME280;3728;42.266;24.944;2023-03-01T02:13:39;100328.50;;;8.43;100.00
7376;BME280;3728;42.266;24.944;2023-03-01T02:16:14;100319.09;;;8.37;100.00
7376;BME280;3728;42.266;24.944;2023-03-01T02:18:43;100315.94;;;8.55;100.00
7376;BME280;3728;42.266;24.944;2023-03-01T02:23:50;100321.47;;;8.28;100.00
7376;BME280;3728;42.266;24.944;2023-03-01T02:26:42;100311.31;;;8.11;100.00
7376;BME280;3728;42.266;24.944;2023-03-01T02:29:14;100310.00;;;8.09;100.00
7376;BME280;3728;42.266;24.944;2023-03-01T02:31:41;100300.59;;;8.08;100.00
7376;BME280;3728;42.266;24.944;2023-03-01T02:34:13;100299.03;;;8.17;100.00
7376;BME280;3728;42.266;24.944;2023-03-01T02:36:56;100301.09;;;8.25;100.00
7376;BME280;3728;42.266;24.944;2023-03-01T02:39:40;100306.03;;;8.42;100.00
7376;BME280;3728;42.266;24.944;2023-03-01T02:42:14;100308.41;;;8.33;100.00
7376;BME280;3728;42.266;24.944;2023-03-01T02:44:46;100299.78;;;8.22;100.00
7376;BME280;3728;42.266;24.944;2023-03-01T02:47:15;100308.88;;;8.50;100.00
7376;BME280;3728;42.266;24.944;2023-03-01T02:49:42;100315.44;;;8.38;100.00
7376;BME280;3728;42.266;24.944;2023-03-01T02:55:09;100313.13;;;8.26;100.00
7376;BME280;3728;42.266;24.944;2023-03-01T02:57:42;100311.28;;;8.37;100.00
7376;BME280;3728;42.266;24.944;2023-03-01T03:00:15;100302.63;;;8.46;100.00
7376;BME280;3728;42.266;24.944;2023-03-01T03:02:51;100304.75;;;8.39;100.00
7376;BME280;3728;42.266;24.944;2023-03-01T03:05:27;100308.13;;;8.45;100.00
7376;BME280;3728;42.266;24.944;2023-03-01T03:07:59;100307.81;;;8.56;100.00
7376;BME280;3728;42.266;24.944;2023-03-01T03:10:33;100310.97;;;8.48;100.00
7376;BME280;3728;42.266;24.944;2023-03-01T03:13:12;100312.78;;;8.53;100.00
7376;BME280;3728;42.266;24.944;2023-03-01T03:15:43;100307.84;;;8.41;100.00
7376;BME280;3728;42.266;24.944;2023-03-01T03:18:13;100312.84;;;8.33;100.00
7376;BME280;3728;42.266;24.944;2023-03-01T03:20:43;100315.97;;;8.40;100.00
7376;BME280;3728;42.266;24.944;2023-03-01T03:23:13;100308.63;;;8.47;100.00
7376;BME280;3728;42.266;24.944;2023-03-01T03:25:41;100305.44;;;8.65;100.00
7376;BME280;3728;42.266;24.944;2023-03-01T03:28:08;100304.41;;;8.61;100.00
7376;BME280;3728;42.266;24.944;2023-03-01T03:30:39;100308.81;;;8.70;100.00
7376;BME280;3728;42.266;24.944;2023-03-01T03:33:09;100305.75;;;8.53;100.00
7376;BME280;3728;42.266;24.944;2023-03-01T03:35:49;100297.41;;;8.51;100.00
7376;BME280;3728;42.266;24.944;2023-03-01T03:38:18;100306.22;;;8.65;100.00
7376;BME280;3728;42.266;24.944;2023-03-01T03:40:59;100301.91;;;9.00;100.00
7376;BME280;3728;42.266;24.944;2023-03-01T03:43:31;100302.69;;;8.95;100.00
7376;BME280;3728;42.266;24.944;2023-03-01T03:46:01;100302.50;;;8.76;100.00
7376;BME280;3728;42.266;24.944;2023-03-01T03:48:34;100306.69;;;8.82;100.00
7376;BME280;3728;42.266;24.944;2023-03-01T03:51:03;100300.97;;;8.75;100.00
7376;BME280;3728;42.266;24.944;2023-03-01T03:53:34;100301.75;;;8.76;100.00
7376;BME280;3728;42.266;24.944;2023-03-01T03:56:02;100303.28;;;8.82;100.00
7376;BME280;3728;42.266;24.944;2023-03-01T03:58:32;100297.56;;;8.70;100.00
7376;BME280;3728;42.266;24.944;2023-03-01T04:01:00;100294.25;;;8.54;100.00
7376;BME280;3728;42.266;24.944;2023-03-01T04:03:29;100297.41;;;8.46;100.00
7376;BME280;3728;42.266;24.944;2023-03-01T04:05:59;100276.31;;;8.33;100.00
7376;BME280;3728;42.266;24.944;2023-03-01T04:08:28;100295.31;;;8.48;100.00
7376;BME280;3728;42.266;24.944;2023-03-01T04:11:03;100297.38;;;8.56;100.00
7376;BME280;3728;42.266;24.944;2023-03-01T04:13:54;100298.41;;;8.55;100.00
7376;BME280;3728;42.266;24.944;2023-03-01T04:16:23;100297.72;;;8.30;100.00
7376;BME280;3728;42.266;24.944;2023-03-01T04:18:54;100302.16;;;8.24;100.00
7376;BME280;3728;42.266;24.944;2023-03-01T04:21:23;100293.25;;;8.40;100.00
7376;BME280;3728;42.266;24.944;2023-03-01T04:23:51;100293.50;;;8.39;100.00
7376;BME280;3728;42.266;24.944;2023-03-01T04:26:19;100289.34;;;8.38;100.00
7376;BME280;3728;42.266;24.944;2023-03-01T04:28:47;100292.50;;;8.19;100.00
7376;BME280;3728;42.266;24.944;2023-03-01T04:31:18;100311.47;;;8.55;100.00
7376;BME280;3728;42.266;24.944;2023-03-01T04:33:52;100307.25;;;8.69;100.00
7376;BME280;3728;42.266;24.944;2023-03-01T04:36:25;100307.28;;;8.59;100.00
7376;BME280;3728;42.266;24.944;2023-03-01T04:38:56;100307.66;;;8.91;100.00
7376;BME280;3728;42.266;24.944;2023-03-01T04:41:24;100306.19;;;8.75;100.00
7376;BME280;3728;42.266;24.944;2023-03-01T04:43:55;100305.00;;;8.48;100.00
7376;BME280;3728;42.266;24.944;2023-03-01T04:46:22;100307.19;;;8.84;100.00
7376;BME280;3728;42.266;24.944;2023-03-01T04:48:50;100295.56;;;8.52;100.00
7376;BME280;3728;42.266;24.944;2023-03-01T04:51:17;100302.13;;;8.39;100.00
7376;BME280;3728;42.266;24.944;2023-03-01T04:53:46;100313.22;;;8.80;100.00
7376;BME280;3728;42.266;24.944;2023-03-01T04:56:14;100314.00;;;9.24;100.00
7376;BME280;3728;42.266;24.944;2023-03-01T04:58:42;100313.34;;;9.04;100.00
7376;BME280;3728;42.266;24.944;2023-03-01T05:01:18;100308.91;;;9.04;100.00
7376;BME280;3728;42.266;24.944;2023-03-01T05:03:51;100319.97;;;8.86;100.00
7376;BME280;3728;42.266;24.944;2023-03-01T05:06:20;100319.22;;;8.80;100.00
7376;BME280;3728;42.266;24.944;2023-03-01T05:08:47;100310.66;;;8.60;100.00
7376;BME280;3728;42.266;24.944;2023-03-01T05:11:15;100301.00;;;8.60;100.00
7376;BME280;3728;42.266;24.944;2023-03-01T05:13:42;100306.00;;;8.52;100.00
7376;BME280;3728;42.266;24.944;2023-03-01T05:16:10;100306.84;;;8.27;100.00
7376;BME280;3728;42.266;24.944;2023-03-01T05:18:39;100303.25;;;7.98;100.00
7376;BME280;3728;42.266;24.944;2023-03-01T05:21:12;100302.69;;;8.16;100.00
7376;BME280;3728;42.266;24.944;2023-03-01T05:23:44;100307.38;;;8.19;100.00
7376;BME280;3728;42.266;24.944;2023-03-01T05:26:15;100306.03;;;8.42;100.00
7376;BME280;3728;42.266;24.944;2023-03-01T05:28:59;100311.47;;;8.60;100.00
7376;BME280;3728;42.266;24.944;2023-03-01T05:31:27;100303.72;;;8.30;100.00
7376;BME280;3728;42.266;24.944;2023-03-01T05:33:57;100306.09;;;8.01;100.00
7376;BME280;3728;42.266;24.944;2023-03-01T05:36:24;100302.97;;;8.09;100.00
7376;BME280;3728;42.266;24.944;2023-03-01T05:38:52;100303.50;;;8.27;100.00
7376;BME280;3728;42.266;24.944;2023-03-01T05:41:19;100308.13;;;8.40;100.00
7376;BME280;3728;42.266;24.944;2023-03-01T05:43:47;100315.97;;;8.30;100.00
7376;BME280;3728;42.266;24.944;2023-03-01T05:46:14;100314.72;;;7.97;100.00
7376;BME280;3728;42.266;24.944;2023-03-01T05:48:42;100321.75;;;7.96;100.00
7376;BME280;3728;42.266;24.944;2023-03-01T05:51:10;100319.91;;;8.17;100.00
7376;BME280;3728;42.266;24.944;2023-03-01T05:53:38;100323.50;;;8.46;100.00
7376;BME280;3728;42.266;24.944;2023-03-01T05:56:06;100331.28;;;8.66;100.00
7376;BME280;3728;42.266;24.944;2023-03-01T05:58:34;100330.97;;;8.83;100.00
7376;BME280;3728;42.266;24.944;2023-03-01T06:01:01;100328.38;;;8.78;100.00
7376;BME280;3728;42.266;24.944;2023-03-01T06:03:29;100331.50;;;8.80;100.00
7376;BME280;3728;42.266;24.944;2023-03-01T06:05:57;100337.63;;;8.45;100.00
7376;BME280;3728;42.266;24.944;2023-03-01T06:08:25;100343.59;;;8.46;100.00
7376;BME280;3728;42.266;24.944;2023-03-01T06:10:54;100345.69;;;8.49;100.00
7376;BME280;3728;42.266;24.944;2023-03-01T06:13:22;100348.81;;;8.56;100.00
7376;BME280;3728;42.266;24.944;2023-03-01T06:15:50;100343.38;;;8.32;100.00
7376;BME280;3728;42.266;24.944;2023-03-01T06:18:18;100340.78;;;8.17;100.00
7376;BME280;3728;42.266;24.944;2023-03-01T06:20:52;100352.22;;;8.46;100.00
7376;BME280;3728;42.266;24.944;2023-03-01T06:23:21;100348.28;;;8.54;100.00
7376;BME280;3728;42.266;24.944;2023-03-01T06:25:49;100344.91;;;8.48;100.00
7376;BME280;3728;42.266;24.944;2023-03-01T06:28:17;100345.16;;;8.57;100.00
7376;BME280;3728;42.266;24.944;2023-03-01T06:30:44;100344.69;;;8.40;100.00
7376;BME280;3728;42.266;24.944;2023-03-01T06:33:12;100339.19;;;8.41;100.00
7376;BME280;3728;42.266;24.944;2023-03-01T06:35:40;100339.22;;;8.26;100.00
7376;BME280;3728;42.266;24.944;2023-03-01T06:38:07;100342.84;;;8.35;100.00
7376;BME280;3728;42.266;24.944;2023-03-01T06:40:35;100341.81;;;8.16;100.00
7376;BME280;3728;42.266;24.944;2023-03-01T06:43:02;100340.19;;;8.55;100.00
7376;BME280;3728;42.266;24.944;2023-03-01T06:45:30;100348.81;;;8.56;100.00
7376;BME280;3728;42.266;24.944;2023-03-01T06:48:03;100344.91;;;8.53;100.00
7376;BME280;3728;42.266;24.944;2023-03-01T06:50:32;100350.63;;;8.50;100.00
7376;BME280;3728;42.266;24.944;2023-03-01T06:53:01;100342.06;;;8.40;100.00
7376;BME280;3728;42.266;24.944;2023-03-01T06:55:29;100344.16;;;8.48;100.00
7376;BME280;3728;42.266;24.944;2023-03-01T06:58:01;100348.09;;;8.35;100.00
7376;BME280;3728;42.266;24.944;2023-03-01T07:00:31;100349.09;;;8.39;100.00
7376;BME280;3728;42.266;24.944;2023-03-01T07:02:59;100350.69;;;8.45;100.00
7376;BME280;3728;42.266;24.944;2023-03-01T07:05:29;100351.06;;;8.82;100.00
7376;BME280;3728;42.266;24.944;2023-03-01T07:07:57;100354.72;;;8.81;100.00
7376;BME280;3728;42.266;24.944;2023-03-01T07:10:25;100350.78;;;8.84;100.00
7376;BME280;3728;42.266;24.944;2023-03-01T07:12:58;100351.88;;;8.83;100.00
7376;BME280;3728;42.266;24.944;2023-03-01T07:15:27;100354.19;;;8.84;100.00
7376;BME280;3728;42.266;24.944;2023-03-01T07:17:56;100353.22;;;8.60;100.00
7376;BME280;3728;42.266;24.944;2023-03-01T07:20:23;100342.56;;;8.52;100.00
7376;BME280;3728;42.266;24.944;2023-03-01T07:22:55;100350.75;;;8.94;100.00
7376;BME280;3728;42.266;24.944;2023-03-01T07:25:25;100345.72;;;9.08;100.00
7376;BME280;3728;42.266;24.944;2023-03-01T07:27:53;100342.31;;;9.12;100.00
7376;BME280;3728;42.266;24.944;2023-03-01T07:30:21;100354.38;;;9.03;100.00
7376;BME280;3728;42.266;24.944;2023-03-01T07:32:53;100358.31;;;8.95;100.00
7376;BME280;3728;42.266;24.944;2023-03-01T07:35:22;100353.06;;;9.06;100.00
7376;BME280;3728;42.266;24.944;2023-03-01T07:37:53;100355.84;;;8.60;100.00
7376;BME280;3728;42.266;24.944;2023-03-01T07:40:21;100346.84;;;8.91;100.00
7376;BME280;3728;42.266;24.944;2023-03-01T07:42:48;100344.34;;;8.71;100.00
7376;BME280;3728;42.266;24.944;2023-03-01T07:45:16;100339.72;;;9.02;100.00
7376;BME280;3728;42.266;24.944;2023-03-01T07:47:43;100341.91;;;8.90;100.00
7376;BME280;3728;42.266;24.944;2023-03-01T07:50:11;100339.78;;;8.97;100.00
7376;BME280;3728;42.266;24.944;2023-03-01T07:52:39;100337.56;;;8.65;100.00
7376;BME280;3728;42.266;24.944;2023-03-01T07:55:07;100331.81;;;9.17;100.00
7376;BME280;3728;42.266;24.944;2023-03-01T07:57:35;100336.38;;;9.02;100.00
7376;BME280;3728;42.266;24.944;2023-03-01T08:00:03;100334.81;;;8.90;100.00
7376;BME280;3728;42.266;24.944;2023-03-01T08:02:37;100329.88;;;8.89;100.00
7376;BME280;3728;42.266;24.944;2023-03-01T08:05:07;100325.31;;;8.61;100.00
7376;BME280;3728;42.266;24.944;2023-03-01T08:07:36;100326.78;;;8.82;100.00
7376;BME280;3728;42.266;24.944;2023-03-01T08:10:04;100326.13;;;9.05;100.00
7376;BME280;3728;42.266;24.944;2023-03-01T08:12:32;100334.91;;;8.75;100.00
7376;BME280;3728;42.266;24.944;2023-03-01T08:15:00;100331.28;;;8.71;100.00
7376;BME280;3728;42.266;24.944;2023-03-01T08:17:27;100336.66;;;9.39;100.00
7376;BME280;3728;42.266;24.944;2023-03-01T08:19:55;100327.72;;;9.06;100.00
7376;BME280;3728;42.266;24.944;2023-03-01T08:22:22;100336.66;;;9.44;100.00
7376;BME280;3728;42.266;24.944;2023-03-01T08:24:50;100329.28;;;9.51;100.00
7376;BME280;3728;42.266;24.944;2023-03-01T08:27:17;100326.41;;;9.09;100.00
7376;BME280;3728;42.266;24.944;2023-03-01T08:29:45;100334.25;;;9.04;100.00
7376;BME280;3728;42.266;24.944;2023-03-01T08:32:12;100332.59;;;9.23;100.00
7376;BME280;3728;42.266;24.944;2023-03-01T08:34:41;100329.53;;;9.11;100.00
7376;BME280;3728;42.266;24.944;2023-03-01T08:37:09;100331.84;;;9.12;100.00
7376;BME280;3728;42.266;24.944;2023-03-01T08:39:36;100339.09;;;9.64;100.00
7376;BME280;3728;42.266;24.944;2023-03-01T08:42:04;100327.56;;;9.70;100.00
7376;BME280;3728;42.266;24.944;2023-03-01T08:44:31;100334.72;;;9.54;100.00
7376;BME280;3728;42.266;24.944;2023-03-01T08:47:00;100333.00;;;9.40;100.00
7376;BME280;3728;42.266;24.944;2023-03-01T08:49:28;100329.91;;;8.79;100.00
7376;BME280;3728;42.266;24.944;2023-03-01T08:51:56;100325.50;;;8.69;100.00
7376;BME280;3728;42.266;24.944;2023-03-01T08:54:23;100334.91;;;8.75;100.00
7376;BME280;3728;42.266;24.944;2023-03-01T08:56:51;100327.06;;;8.80;100.00
7376;BME280;3728;42.266;24.944;2023-03-01T08:59:18;100335.47;;;9.60;100.00
7376;BME280;3728;42.266;24.944;2023-03-01T09:01:46;100329.09;;;9.37;100.00
7376;BME280;3728;42.266;24.944;2023-03-01T09:04:14;100332.13;;;9.16;100.00
7376;BME280;3728;42.266;24.944;2023-03-01T09:06:43;100331.66;;;8.99;100.00
7376;BME280;3728;42.266;24.944;2023-03-01T09:09:17;100331.00;;;9.22;100.00
7376;BME280;3728;42.266;24.944;2023-03-01T09:11:46;100329.50;;;9.16;100.00
7376;BME280;3728;42.266;24.944;2023-03-01T09:14:16;100318.72;;;8.78;100.00
7376;BME280;3728;42.266;24.944;2023-03-01T09:16:44;100324.13;;;8.97;100.00
7376;BME280;3728;42.266;24.944;2023-03-01T09:19:11;100323.47;;;9.54;100.00
7376;BME280;3728;42.266;24.944;2023-03-01T09:21:40;100315.66;;;9.15;100.00
7376;BME280;3728;42.266;24.944;2023-03-01T09:24:13;100327.34;;;9.28;100.00
7376;BME280;3728;42.266;24.944;2023-03-01T09:26:42;100325.25;;;9.25;100.00
7376;BME280;3728;42.266;24.944;2023-03-01T09:29:15;100327.28;;;9.33;100.00
7376;BME280;3728;42.266;24.944;2023-03-01T09:31:44;100326.25;;;9.34;100.00
7376;BME280;3728;42.266;24.944;2023-03-01T09:34:11;100335.44;;;9.65;100.00
7376;BME280;3728;42.266;24.944;2023-03-01T09:36:42;100325.06;;;9.55;100.00
7376;BME280;3728;42.266;24.944;2023-03-01T09:39:10;100323.34;;;10.03;100.00
7376;BME280;3728;42.266;24.944;2023-03-01T09:44:40;100330.44;;;9.35;100.00
7376;BME280;3728;42.266;24.944;2023-03-01T09:47:29;100320.25;;;9.28;100.00
7376;BME280;3728;42.266;24.944;2023-03-01T09:55:52;100311.59;;;9.33;100.00
7376;BME280;3728;42.266;24.944;2023-03-01T09:58:54;100312.78;;;9.50;100.00
7376;BME280;3728;42.266;24.944;2023-03-01T10:04:41;100314.56;;;9.60;100.00
7376;BME280;3728;42.266;24.944;2023-03-01T10:07:42;100303.66;;;9.48;100.00
7376;BME280;3728;42.266;24.944;2023-03-01T10:13:00;100302.06;;;10.14;100.00
7376;BME280;3728;42.266;24.944;2023-03-01T10:15:44;100293.72;;;10.12;100.00
7376;BME280;3728;42.266;24.944;2023-03-01T10:18:25;100298.91;;;9.55;100.00
7376;BME280;3728;42.266;24.944;2023-03-01T10:23:43;100286.94;;;9.78;100.00
7376;BME280;3728;42.266;24.944;2023-03-01T10:29:11;100289.91;;;9.66;100.00
7376;BME280;3728;42.266;24.944;2023-03-01T10:31:51;100280.69;;;10.02;100.00
7376;BME280;3728;42.266;24.944;2023-03-01T10:34:31;100278.06;;;9.45;100.00
7376;BME280;3728;42.266;24.944;2023-03-01T10:37:09;100280.59;;;9.16;100.00
7376;BME280;3728;42.266;24.944;2023-03-01T10:42:47;100275.84;;;9.62;100.00
7376;BME280;3728;42.266;24.944;2023-03-01T10:51:06;100269.09;;;9.56;100.00
7376;BME280;3728;42.266;24.944;2023-03-01T10:53:41;100269.28;;;9.31;100.00
7376;BME280;3728;42.266;24.944;2023-03-01T10:56:12;100263.75;;;9.66;100.00
7376;BME280;3728;42.266;24.944;2023-03-01T10:59:03;100261.03;;;9.47;100.00
7376;BME280;3728;42.266;24.944;2023-03-01T11:01:33;100260.56;;;9.40;100.00
7376;BME280;3728;42.266;24.944;2023-03-01T11:06:42;100263.34;;;9.20;100.00
7376;BME280;3728;42.266;24.944;2023-03-01T11:09:20;100257.84;;;9.55;100.00
7376;BME280;3728;42.266;24.944;2023-03-01T11:11:53;100262.88;;;9.13;100.00
7376;BME280;3728;42.266;24.944;2023-03-01T11:14:23;100259.31;;;9.33;100.00
7376;BME280;3728;42.266;24.944;2023-03-01T11:17:05;100255.66;;;9.34;100.00
7376;BME280;3728;42.266;24.944;2023-03-01T11:20:00;100252.31;;;8.89;100.00
7376;BME280;3728;42.266;24.944;2023-03-01T11:22:30;100243.72;;;8.79;100.00
7376;BME280;3728;42.266;24.944;2023-03-01T11:25:01;100238.88;;;9.06;100.00
7376;BME280;3728;42.266;24.944;2023-03-01T11:27:44;100234.44;;;9.07;100.00
7376;BME280;3728;42.266;24.944;2023-03-01T11:30:24;100233.09;;;9.43;100.00
7376;BME280;3728;42.266;24.944;2023-03-01T11:33:18;100226.34;;;9.42;100.00
7376;BME280;3728;42.266;24.944;2023-03-01T11:36:10;100227.50;;;9.26;100.00
7376;BME280;3728;42.266;24.944;2023-03-01T11:38:47;100230.06;;;9.31;100.00
7376;BME280;3728;42.266;24.944;2023-03-01T11:41:19;100225.06;;;9.01;100.00
7376;BME280;3728;42.266;24.944;2023-03-01T11:44:08;100218.72;;;9.45;100.00
7376;BME280;3728;42.266;24.944;2023-03-01T11:52:46;100205.00;;;8.91;100.00
7376;BME280;3728;42.266;24.944;2023-03-01T12:02:07;100199.59;;;9.50;100.00
7376;BME280;3728;42.266;24.944;2023-03-01T12:07:41;100196.13;;;9.26;100.00
7376;BME280;3728;42.266;24.944;2023-03-01T12:10:33;100196.78;;;9.70;100.00
7376;BME280;3728;42.266;24.944;2023-03-01T12:17:00;100195.03;;;9.32;100.00
7376;BME280;3728;42.266;24.944;2023-03-01T12:20:02;100195.03;;;9.32;100.00
7376;BME280;3728;42.266;24.944;2023-03-01T12:22:48;100197.69;;;9.27;100.00
7376;BME280;3728;42.266;24.944;2023-03-01T12:25:39;100193.66;;;9.11;100.00
7376;BME280;3728;42.266;24.944;2023-03-01T12:28:46;100189.16;;;9.45;100.00
7376;BME280;3728;42.266;24.944;2023-03-01T12:49:23;100182.50;;;9.29;100.00
7376;BME280;3728;42.266;24.944;2023-03-01T12:52:13;100179.00;;;9.43;100.00
7376;BME280;3728;42.266;24.944;2023-03-01T12:54:47;100180.69;;;9.29;100.00
7376;BME280;3728;42.266;24.944;2023-03-01T12:57:18;100179.03;;;9.05;100.00
7376;BME280;3728;42.266;24.944;2023-03-01T13:03:18;100181.13;;;9.08;100.00
7376;BME280;3728;42.266;24.944;2023-03-01T13:06:19;100176.03;;;8.92;100.00
7376;BME280;3728;42.266;24.944;2023-03-01T13:09:24;100180.50;;;8.87;100.00
7376;BME280;3728;42.266;24.944;2023-03-01T13:12:01;100175.56;;;8.85;100.00
7376;BME280;3728;42.266;24.944;2023-03-01T13:14:44;100174.06;;;9.08;100.00
7376;BME280;3728;42.266;24.944;2023-03-01T13:17:33;100174.84;;;9.09;100.00
7376;BME280;3728;42.266;24.944;2023-03-01T13:20:13;100177.94;;;8.77;100.00
7376;BME280;3728;42.266;24.944;2023-03-01T13:22:42;100179.25;;;8.74;100.00
7376;BME280;3728;42.266;24.944;2023-03-01T13:25:20;100180.69;;;8.95;100.00
7376;BME280;3728;42.266;24.944;2023-03-01T13:33:58;100175.78;;;8.89;100.00
7376;BME280;3728;42.266;24.944;2023-03-01T13:39:28;100179.91;;;9.29;100.00
7376;BME280;3728;42.266;24.944;2023-03-01T13:42:02;100176.53;;;8.94;100.00
7376;BME280;3728;42.266;24.944;2023-03-01T13:44:33;100181.00;;;8.89;100.00
7376;BME280;3728;42.266;24.944;2023-03-01T13:49:46;100180.22;;;9.22;100.00
7376;BME280;3728;42.266;24.944;2023-03-01T13:55:03;100181.09;;;9.41;100.00
7376;BME280;3728;42.266;24.944;2023-03-01T13:57:43;100178.69;;;9.16;100.00
7376;BME280;3728;42.266;24.944;2023-03-01T14:00:36;100179.59;;;9.02;100.00
7376;BME280;3728;42.266;24.944;2023-03-01T14:03:16;100179.03;;;9.05;100.00
7376;BME280;3728;42.266;24.944;2023-03-01T14:06:05;100177.66;;;9.17;100.00
7376;BME280;3728;42.266;24.944;2023-03-01T14:08:45;100182.44;;;9.05;100.00
7376;BME280;3728;42.266;24.944;2023-03-01T14:20:00;100174.69;;;9.29;100.00
7376;BME280;3728;42.266;24.944;2023-03-01T14:22:59;100178.56;;;8.98;100.00
7376;BME280;3728;42.266;24.944;2023-03-01T14:25:34;100182.00;;;8.93;100.00
7376;BME280;3728;42.266;24.944;2023-03-01T14:28:29;100182.84;;;9.22;100.00
7376;BME280;3728;42.266;24.944;2023-03-01T14:31:37;100182.47;;;9.34;100.00
7376;BME280;3728;42.266;24.944;2023-03-01T14:34:21;100185.78;;;9.16;100.00
7376;BME280;3728;42.266;24.944;2023-03-01T14:36:52;100186.06;;;9.09;100.00
7376;BME280;3728;42.266;24.944;2023-03-01T14:39:30;100182.94;;;9.07;100.00
7376;BME280;3728;42.266;24.944;2023-03-01T14:42:00;100187.00;;;8.89;100.00
7376;BME280;3728;42.266;24.944;2023-03-01T14:44:43;100184.25;;;9.38;100.00
7376;BME280;3728;42.266;24.944;2023-03-01T14:47:18;100182.75;;;9.32;100.00
7376;BME280;3728;42.266;24.944;2023-03-01T14:50:31;100180.22;;;8.88;100.00
7376;BME280;3728;42.266;24.944;2023-03-01T14:53:02;100182.72;;;9.04;100.00
7376;BME280;3728;42.266;24.944;2023-03-01T14:55:41;100188.75;;;9.33;100.00
7376;BME280;3728;42.266;24.944;2023-03-01T14:58:24;100177.59;;;9.22;100.00
7376;BME280;3728;42.266;24.944;2023-03-01T15:01:02;100179.88;;;9.00;100.00
7376;BME280;3728;42.266;24.944;2023-03-01T15:03:40;100178.09;;;8.90;100.00
7376;BME280;3728;42.266;24.944;2023-03-01T15:06:14;100183.88;;;9.21;100.00
7376;BME280;3728;42.266;24.944;2023-03-01T15:08:50;100175.88;;;9.13;100.00
7376;BME280;3728;42.266;24.944;2023-03-01T15:13:52;100190.13;;;8.91;100.00
7376;BME280;3728;42.266;24.944;2023-03-01T15:16:24;100184.22;;;8.76;100.00
7376;BME280;3728;42.266;24.944;2023-03-01T15:19:02;100182.19;;;9.07;100.00